This is the latest recevied weather packets stored in our database for station/object N0NB. If no packets are shown the sender has not sent any weather packets the latest 10 day(s).
| Time | Temp. | Humidity | Pressure | Rain* | Wind** | Luminosity | Snow |
|---|---|---|---|---|---|---|---|
| 1777341917 | 11.11° C | 74% | 1012.6 hPa | 0 mm | - | 0 W/m² | - |
| 1777341317 | 11.11° C | 74% | 1012.2 hPa | 0 mm | - | 0 W/m² | - |
| 1777340717 | 11.11° C | 74% | 1012 hPa | 0 mm | - | 0 W/m² | - |
| 1777340117 | 11.11° C | 73% | 1011.7 hPa | 0 mm | - | 0 W/m² | - |
| 1777339517 | 11.67° C | 75% | 1011.5 hPa | 0 mm | - | 0 W/m² | - |
| 1777338917 | 11.67° C | 74% | 1011.4 hPa | 0 mm | - | 0 W/m² | - |
| 1777338317 | 11.67° C | 74% | 1011.1 hPa | 0 mm | - | 5 W/m² | - |
| 1777337717 | 11.67° C | 74% | 1010.9 hPa | 0 mm | - | 13 W/m² | - |
| 1777337117 | 11.67° C | 74% | 1010.6 hPa | 0 mm | - | 22 W/m² | - |
| 1777336517 | 12.22° C | 74% | 1010.3 hPa | 0 mm | - | 40 W/m² | - |
| 1777335917 | 12.22° C | 75% | 1010.1 hPa | 0 mm | - | 38 W/m² | - |
| 1777335317 | 12.22° C | 73% | 1009.8 hPa | 0 mm | - | 64 W/m² | - |
| 1777334717 | 12.78° C | 73% | 1009.8 hPa | 0 mm | - | 120 W/m² | - |
| 1777334117 | 12.78° C | 73% | 1009.7 hPa | 0 mm | - | 187 W/m² | - |
| 1777333517 | 12.78° C | 72% | 1009.4 hPa | 0 mm | - | 102 W/m² | - |
| 1777332917 | 13.33° C | 72% | 1009.4 hPa | 0 mm | - | 93 W/m² | - |
| 1777332317 | 13.33° C | 72% | 1009.1 hPa | 0 mm | - | 84 W/m² | - |
| 1777331717 | 13.89° C | 71% | 1009.1 hPa | 0 mm | - | 343 W/m² | - |
| 1777331117 | 13.89° C | 71% | 1009 hPa | 0 mm | - | 373 W/m² | - |
| 1777330516 | 13.33° C | 74% | 1008.7 hPa | 0 mm | - | 121 W/m² | - |
| 1777329917 | 13.89° C | 74% | 1008.5 hPa | 0 mm | - | 129 W/m² | - |
| 1777329317 | 13.89° C | 74% | 1008.3 hPa | 0 mm | - | 148 W/m² | - |
| 1777328717 | 13.89° C | 73% | 1007.9 hPa | 0 mm | - | 151 W/m² | - |
| 1777328117 | 14.44° C | 73% | 1008 hPa | 0 mm | - | 149 W/m² | - |
| 1777327517 | 14.44° C | 76% | 1007.8 hPa | 0 mm | - | 276 W/m² | - |
* Rain latest hour (hover to see other rain measurements)
** Current wind speed in m/s (hover to see current wind gust speed)